Impacts METAR Board INFO
IDs:

KDTW - Detroit Metro/Wayne, MI, US

Updated at: 1811 UTC 18 Feb 2018
Potential Impact None Slight Moderate High
Time18/06Z 18/07Z 18/08Z 18/09Z 18/10Z 18/11Z 18/12Z 18/13Z 18/14Z 18/15Z 18/16Z 18/17Z 18/18Z
VIS6 6 7 8 9 8 9 9 10 10 10 10 10
CIG45 25 35 25 24 27 27 25 -- -- -- 200 200
CoverBKNOVCOVCOVCOVCOVCOVCBKNSCTFEWSCTBKNOVC
FltCatVFRMVFRVFRMVFRMVFRMVFRMVFRMVFRVFRVFRVFRVFRVFR
WXBRBR----------------------
WDir240230230240250230290250250220200170220
WSpd5 6 8 3 7 5 8 3 6 4 4 9 11
WGst-- -- -- -- -- -- -- -- -- -- -- -- --
Raw hourly METARs
KDTW 180553Z 24005KT 6SM BR FEW025 SCT035 BKN045 M02/M03 A3005 RMK AO2 SLP184 60001 T10171028 10000 21017 53016
KDTW 180653Z 23006KT 6SM BR BKN025 OVC050 M02/M03 A3010 RMK AO2 SLP200 T10171028
KDTW 180753Z 23008KT 7SM SCT020 OVC035 M01/M03 A3013 RMK AO2 SLP211 T10111028
KDTW 180853Z 24003KT 8SM BKN025 OVC035 M01/M03 A3017 RMK AO2 SLP224 T10111028 51040
KDTW 180953Z 25007KT 9SM OVC024 M01/M03 A3022 RMK AO2 SLP240 T10061033
KDTW 181053Z 23005KT 8SM OVC027 M01/M03 A3027 RMK AO2 SLP256 T10061033
KDTW 181153Z 29008KT 9SM OVC027 00/M05 A3028 RMK AO2 SLP262 70001 T00001050 10000 21022 51037
KDTW 181253Z 25003KT 9SM BKN025 M01/M05 A3030 RMK AO2 SLP268 T10111050
KDTW 181353Z 25006KT 10SM SCT025 00/M05 A3032 RMK AO2 SLP274 T00001050
KDTW 181453Z 22004KT 10SM FEW025 01/M05 A3034 RMK AO2 SLP282 T00111050 53014
KDTW 181553Z 20004KT 10SM SCT025 SCT200 01/M05 A3033 RMK AO2 SLP278 T00111050
KDTW 181653Z 17009KT 10SM SCT025 BKN200 02/M04 A3032 RMK AO2 SLP273 T00171044
KDTW 181753Z 22011KT 10SM SCT025 OVC200 02/M04 A3032 RMK AO2 SLP275 T00171039 10022 21011 55007